KIWD/IWD METAR and TAF weather

Enter ICAO airport designator
Station Type Date Time Source
KIWD METAR 2021/02/24 17:56 UTC NOAA

KIWD 241756Z AUTO 32013G18KT 10SM BKN021 OVC026 M01/M06 A2997 RMK AO2 SLP163 60000 T10111056 11006 21022 51027 FZRANO


Station Type Date Time Source
KIWD Decoded METAR 2021/02/24 17:56 UTC NOAA

Ironwood, Gogebic-Iron County Airport, MI, United States (KIWD) 46-32N 090-08W
Feb 24, 2021 - 12:56 PM EST / 2021.02.24 1756 UTC
Wind: from the NW (320 degrees) at 15 MPH (13 KT) gusting to 21 MPH (18 KT):0
Visibility: 10 mile(s):0
Sky conditions: overcast
Temperature: 30.0 F (-1.1 C)
Windchill: 19 F (-7 C):1
Dew Point: 21.9 F (-5.6 C)
Relative Humidity: 71%
Pressure (altimeter): 29.97 in. Hg (1014 hPa)
Pressure tendency: 0.08 inches (2.7 hPa) higher than three hours ago
ob: KIWD 241756Z AUTO 32013G18KT 10SM BKN021 OVC026 M01/M06 A2997 RMK AO2 SLP163 60000 T10111056 11006 21022 51027 FZRANO
cycle: 18

Station Type Date Time Source
KIWD TAF 2021/02/24 18:24 UTC NOAA

TAF KIWD 241721Z 2418/2518 34011KT P6SM BKN015
FM242100 31008KT P6SM SCT080
FM250700 VRB04KT P6SM BKN025
FM250900 25005KT P6SM BKN015
FM251600 28012KT P6SM BKN020

Example: see airport list